createdAt,value
2022-08-30T00:02:22.456Z,17.40
2022-08-30T00:04:54.346Z,17.30
2022-08-30T00:07:22.141Z,17.30
2022-08-30T00:09:49.206Z,17.20
2022-08-30T00:12:16.206Z,17.10
2022-08-30T00:14:43.211Z,17.10
2022-08-30T00:17:10.177Z,17.00
2022-08-30T00:19:38.241Z,17.00
2022-08-30T00:22:07.254Z,16.90
2022-08-30T00:24:34.231Z,16.90
2022-08-30T00:27:01.203Z,16.80
2022-08-30T00:29:28.212Z,16.80
2022-08-30T00:31:55.144Z,16.70
2022-08-30T00:34:22.147Z,16.70
2022-08-30T00:36:49.097Z,16.60
2022-08-30T00:39:16.065Z,16.60
2022-08-30T00:41:43.135Z,16.50
2022-08-30T00:44:10.479Z,16.50
2022-08-30T00:46:37.649Z,16.40
2022-08-30T00:49:08.948Z,16.40
2022-08-30T00:51:36.168Z,16.40
2022-08-30T00:54:04.469Z,16.40
2022-08-30T00:56:32.640Z,16.30
2022-08-30T00:59:02.043Z,16.30
2022-08-30T01:01:30.387Z,16.30
2022-08-30T01:04:01.264Z,16.20
2022-08-30T01:06:32.546Z,16.20
2022-08-30T01:09:01.665Z,16.20
2022-08-30T01:11:29.356Z,16.10
2022-08-30T01:13:56.599Z,16.10
2022-08-30T01:16:25.516Z,16.10
2022-08-30T01:18:57.674Z,16.10
2022-08-30T01:21:54.946Z,16.10
2022-08-30T01:24:22.413Z,16.00
2022-08-30T01:26:49.369Z,16.00
2022-08-30T01:29:21.426Z,16.00
2022-08-30T01:31:49.467Z,16.00
2022-08-30T01:34:16.498Z,15.90
2022-08-30T01:36:46.100Z,15.90
2022-08-30T01:39:16.664Z,15.90
2022-08-30T01:41:43.968Z,15.90
2022-08-30T01:44:12.587Z,15.80
2022-08-30T01:46:43.118Z,15.90
2022-08-30T01:49:14.069Z,15.90
2022-08-30T01:52:00.471Z,15.90
2022-08-30T01:54:29.260Z,15.90
2022-08-30T01:57:00.322Z,15.90
2022-08-30T01:59:27.662Z,15.90
2022-08-30T02:01:55.087Z,15.90
2022-08-30T02:04:22.149Z,15.90
2022-08-30T02:06:49.331Z,15.90
2022-08-30T02:09:16.690Z,15.80
2022-08-30T02:11:44.652Z,15.80
2022-08-30T02:14:12.199Z,15.80
2022-08-30T02:16:39.947Z,15.80
2022-08-30T02:19:07.515Z,15.70
2022-08-30T02:21:34.719Z,15.70
2022-08-30T02:24:01.809Z,15.70
2022-08-30T02:26:28.790Z,15.70
2022-08-30T02:28:56.079Z,15.60
2022-08-30T02:31:26.449Z,15.60
2022-08-30T02:33:53.806Z,15.60
2022-08-30T02:36:21.664Z,15.60
2022-08-30T02:38:50.240Z,15.60
2022-08-30T02:41:18.437Z,15.60
2022-08-30T02:43:45.519Z,15.60
2022-08-30T02:46:12.693Z,15.50
2022-08-30T02:48:39.976Z,15.50
2022-08-30T02:51:11.733Z,15.50
2022-08-30T02:53:40.976Z,15.60
2022-08-30T02:56:08.327Z,15.60
2022-08-30T02:58:35.634Z,15.50
2022-08-30T03:01:02.804Z,15.50
2022-08-30T03:03:29.915Z,15.50
2022-08-30T03:05:57.135Z,15.50
2022-08-30T03:08:24.687Z,15.50
2022-08-30T03:10:52.231Z,15.40
2022-08-30T03:13:19.518Z,15.40
2022-08-30T03:15:49.152Z,15.40
2022-08-30T03:18:17.594Z,15.40
2022-08-30T03:20:48.348Z,15.30
2022-08-30T03:23:22.153Z,15.30
2022-08-30T03:25:49.418Z,15.30
2022-08-30T03:28:16.379Z,15.20
2022-08-30T03:30:43.408Z,15.20
2022-08-30T03:33:11.386Z,15.20
2022-08-30T03:35:38.860Z,15.20
2022-08-30T03:38:06.473Z,15.10
2022-08-30T03:40:33.781Z,15.10
2022-08-30T03:43:01.139Z,15.10
2022-08-30T03:45:28.523Z,15.10
2022-08-30T03:47:55.557Z,15.10
2022-08-30T03:50:22.616Z,15.10
2022-08-30T03:52:49.870Z,15.00
2022-08-30T03:55:17.359Z,15.00
2022-08-30T03:57:44.455Z,15.00
2022-08-30T04:00:13.027Z,15.00
2022-08-30T04:02:40.981Z,15.00
2022-08-30T04:05:09.293Z,14.90
2022-08-30T04:07:36.959Z,14.90
2022-08-30T04:10:06.410Z,14.90
2022-08-30T04:12:33.467Z,14.90
2022-08-30T04:15:00.526Z,14.90
2022-08-30T04:17:27.700Z,14.90
2022-08-30T04:19:54.851Z,14.90
2022-08-30T04:22:22.137Z,14.80
2022-08-30T04:24:49.194Z,14.80
2022-08-30T04:27:20.262Z,14.80
2022-08-30T04:29:48.002Z,14.70
2022-08-30T04:32:16.751Z,14.70
2022-08-30T04:34:43.857Z,14.70
2022-08-30T04:37:10.942Z,14.70
2022-08-30T04:39:38.032Z,14.70
2022-08-30T04:42:05.189Z,14.70
2022-08-30T04:44:33.006Z,14.70
2022-08-30T04:47:00.016Z,14.70
2022-08-30T04:49:27.032Z,14.70
2022-08-30T04:51:54.030Z,14.70
2022-08-30T04:54:21.068Z,14.70
2022-08-30T04:56:48.071Z,14.70
2022-08-30T04:59:15.176Z,14.70
2022-08-30T05:01:45.750Z,14.70
2022-08-30T05:04:14.187Z,14.60
2022-08-30T05:06:41.174Z,14.60
2022-08-30T05:09:08.170Z,14.60
2022-08-30T05:11:35.171Z,14.60
2022-08-30T05:14:02.153Z,14.60
2022-08-30T05:16:29.364Z,14.70
2022-08-30T05:18:56.536Z,14.70
2022-08-30T05:21:26.636Z,14.70
2022-08-30T05:23:56.183Z,14.70
2022-08-30T05:26:26.027Z,14.70
2022-08-30T05:28:53.231Z,14.70
2022-08-30T05:31:24.698Z,14.70
2022-08-30T05:33:53.244Z,14.70
2022-08-30T05:36:23.849Z,14.70
2022-08-30T05:38:51.154Z,14.80
2022-08-30T05:41:23.317Z,14.80
2022-08-30T05:43:58.961Z,14.80
2022-08-30T05:46:29.572Z,14.80
2022-08-30T05:48:57.203Z,14.90
2022-08-30T05:51:26.900Z,14.90
2022-08-30T05:53:54.956Z,14.90
2022-08-30T05:56:25.811Z,14.90
2022-08-30T05:58:53.750Z,15.00
2022-08-30T06:01:33.321Z,15.00
2022-08-30T06:04:04.188Z,15.10
2022-08-30T06:06:34.036Z,15.10
2022-08-30T06:09:01.536Z,15.10
2022-08-30T06:11:32.474Z,15.20
2022-08-30T06:13:59.533Z,15.20
2022-08-30T06:16:27.723Z,15.20
2022-08-30T06:18:56.829Z,15.30
2022-08-30T06:21:30.373Z,15.30
2022-08-30T06:23:58.577Z,15.40
2022-08-30T06:26:27.373Z,15.50
2022-08-30T06:28:55.670Z,15.60
2022-08-30T06:31:24.689Z,15.70
2022-08-30T06:33:52.557Z,15.80
2022-08-30T06:36:23.845Z,15.90
2022-08-30T06:38:53.259Z,16.00
2022-08-30T06:41:23.224Z,16.00
2022-08-30T06:43:50.962Z,16.20
2022-08-30T06:46:21.365Z,16.30
2022-08-30T06:48:48.795Z,16.40
2022-08-30T06:51:20.951Z,16.50
2022-08-30T06:53:49.280Z,16.70
2022-08-30T06:56:17.823Z,16.80
2022-08-30T06:58:45.992Z,16.90
2022-08-30T07:01:18.225Z,17.10
2022-08-30T07:03:45.666Z,17.20
2022-08-30T07:06:13.632Z,17.30
2022-08-30T07:08:40.895Z,17.40
2022-08-30T07:11:08.742Z,17.60
2022-08-30T07:13:37.233Z,17.70
2022-08-30T07:16:14.754Z,17.80
2022-08-30T07:18:50.689Z,17.90
2022-08-30T07:21:22.118Z,18.00
2022-08-30T07:23:53.179Z,18.20
2022-08-30T07:26:25.527Z,18.30
2022-08-30T07:28:55.748Z,18.50
2022-08-30T07:31:24.223Z,18.50
2022-08-30T07:33:51.496Z,18.70
2022-08-30T07:36:21.942Z,18.80
2022-08-30T07:38:50.691Z,19.00
2022-08-30T07:41:39.022Z,19.10
2022-08-30T07:44:09.636Z,19.30
2022-08-30T07:46:38.749Z,19.50
2022-08-30T07:49:10.786Z,19.70
2022-08-30T07:51:39.862Z,19.80
2022-08-30T07:54:07.360Z,20.00
2022-08-30T07:56:35.228Z,20.20
2022-08-30T07:59:02.302Z,20.40
2022-08-30T08:01:29.522Z,20.50
2022-08-30T08:03:56.640Z,20.80
2022-08-30T08:06:24.324Z,21.00
2022-08-30T08:08:51.981Z,21.20
2022-08-30T08:11:26.835Z,21.40
2022-08-30T08:13:56.448Z,21.60
2022-08-30T08:16:25.863Z,21.80
2022-08-30T08:18:54.409Z,22.00
2022-08-30T08:21:22.996Z,22.20
2022-08-30T08:23:51.180Z,22.30
2022-08-30T08:26:19.432Z,22.60
2022-08-30T08:28:47.321Z,22.80
2022-08-30T08:31:19.765Z,22.90
2022-08-30T08:33:48.229Z,23.10
2022-08-30T08:36:15.448Z,23.30
2022-08-30T08:38:42.760Z,23.60
2022-08-30T08:41:13.563Z,23.80
2022-08-30T08:43:41.494Z,24.00
2022-08-30T08:46:41.235Z,24.30
2022-08-30T08:49:12.718Z,24.50
2022-08-30T08:51:59.522Z,24.70
2022-08-30T08:55:01.853Z,24.90
2022-08-30T08:57:34.389Z,25.10
2022-08-30T09:00:02.083Z,25.30
2022-08-30T09:02:44.641Z,25.50
2022-08-30T09:05:17.608Z,25.70
2022-08-30T09:07:49.871Z,25.90
2022-08-30T09:10:22.984Z,26.10
2022-08-30T09:13:00.041Z,26.20
2022-08-30T09:15:33.567Z,26.40
2022-08-30T09:18:04.727Z,26.50
2022-08-30T09:20:35.844Z,26.70
2022-08-30T09:23:24.015Z,26.80
2022-08-30T09:26:09.536Z,27.00
2022-08-30T09:28:50.721Z,27.30
2022-08-30T09:31:23.614Z,27.50
2022-08-30T09:34:18.630Z,27.80
2022-08-30T09:36:52.078Z,28.00
2022-08-30T09:39:27.524Z,28.20
2022-08-30T09:42:10.856Z,28.50
2022-08-30T09:44:39.142Z,28.60
2022-08-30T09:47:24.792Z,28.80
2022-08-30T09:50:05.882Z,29.00
2022-08-30T09:53:09.780Z,29.20
2022-08-30T09:55:43.304Z,29.20
2022-08-30T09:58:38.234Z,29.40
2022-08-30T10:01:16.045Z,29.50
2022-08-30T10:04:19.255Z,29.60
2022-08-30T10:07:07.723Z,29.70
2022-08-30T10:09:58.127Z,29.80
2022-08-30T10:12:31.421Z,29.90
2022-08-30T10:15:17.247Z,29.90
2022-08-30T10:18:30.618Z,29.90
2022-08-30T10:21:07.694Z,29.90
2022-08-30T10:23:41.092Z,29.80
2022-08-30T10:26:14.146Z,29.90
2022-08-30T10:28:58.844Z,30.00
2022-08-30T10:31:37.210Z,30.10
2022-08-30T10:34:10.204Z,30.20
2022-08-30T10:37:14.705Z,30.30
2022-08-30T10:39:48.626Z,30.50
2022-08-30T10:42:26.070Z,30.50
2022-08-30T10:45:11.931Z,30.30
2022-08-30T10:47:44.735Z,30.40
2022-08-30T10:50:23.639Z,30.30
2022-08-30T10:52:59.358Z,30.30
2022-08-30T10:55:33.553Z,30.10
2022-08-30T10:58:03.147Z,30.00
2022-08-30T11:00:59.324Z,29.70
2022-08-30T11:03:58.984Z,29.60
2022-08-30T11:06:39.671Z,29.60
2022-08-30T11:09:21.683Z,29.70
2022-08-30T11:12:16.842Z,29.80
2022-08-30T11:14:46.409Z,30.10
2022-08-30T11:17:32.612Z,30.40
2022-08-30T11:20:02.355Z,30.60
2022-08-30T11:22:39.102Z,30.80
2022-08-30T11:25:15.599Z,31.00
2022-08-30T11:27:58.911Z,31.10
2022-08-30T11:30:27.026Z,31.40
2022-08-30T11:33:09.653Z,31.60
2022-08-30T11:35:52.779Z,31.60
2022-08-30T11:38:25.792Z,31.70
2022-08-30T11:41:12.107Z,31.90
2022-08-30T11:43:59.318Z,32.00
2022-08-30T11:46:26.364Z,32.20
2022-08-30T11:49:23.396Z,32.30
2022-08-30T11:52:23.801Z,32.10
2022-08-30T11:55:08.311Z,32.00
2022-08-30T11:57:52.859Z,32.00
2022-08-30T12:00:41.934Z,32.00
2022-08-30T12:03:32.159Z,31.90
2022-08-30T12:06:05.790Z,31.60
2022-08-30T12:08:36.151Z,31.30
2022-08-30T12:11:13.297Z,31.00
2022-08-30T12:13:43.309Z,30.90
2022-08-30T12:16:19.882Z,30.70
2022-08-30T12:18:51.015Z,30.60
2022-08-30T12:21:17.955Z,30.40
2022-08-30T12:24:22.128Z,30.20
2022-08-30T12:26:51.588Z,30.00
2022-08-30T12:29:22.567Z,29.80
2022-08-30T12:31:56.273Z,29.60
2022-08-30T12:34:40.605Z,29.60
2022-08-30T12:37:42.321Z,29.60
2022-08-30T12:40:16.078Z,29.80
2022-08-30T12:42:56.749Z,29.90
2022-08-30T12:45:30.159Z,30.00
2022-08-30T12:48:04.422Z,30.00
2022-08-30T12:50:52.066Z,29.80
2022-08-30T12:53:32.873Z,29.60
2022-08-30T12:56:35.039Z,29.40
2022-08-30T12:59:05.096Z,29.40
2022-08-30T13:01:35.802Z,29.30
2022-08-30T13:04:20.270Z,29.40
2022-08-30T13:06:51.915Z,29.40
2022-08-30T13:09:32.565Z,29.40
2022-08-30T13:12:02.618Z,29.30
2022-08-30T13:14:33.742Z,29.30
2022-08-30T13:17:28.633Z,29.20
2022-08-30T13:20:07.857Z,29.00
2022-08-30T13:22:37.529Z,28.90
2022-08-30T13:25:06.105Z,28.80
2022-08-30T13:27:36.952Z,28.60
2022-08-30T13:30:14.524Z,28.50
2022-08-30T13:32:42.275Z,28.40
2022-08-30T13:35:10.764Z,28.40
2022-08-30T13:37:49.321Z,28.40
2022-08-30T13:40:18.939Z,28.30
2022-08-30T13:42:46.761Z,28.30
2022-08-30T13:48:06.429Z,28.30
2022-08-30T13:50:33.613Z,28.20
2022-08-30T13:53:00.815Z,28.20
2022-08-30T13:55:28.426Z,28.20
2022-08-30T13:57:56.628Z,28.30
2022-08-30T14:00:25.175Z,28.40
2022-08-30T14:02:59.704Z,28.60
2022-08-30T14:05:48.408Z,28.70
2022-08-30T14:11:09.703Z,28.60
2022-08-30T14:13:36.921Z,28.60
2022-08-30T14:18:54.547Z,28.70
2022-08-30T14:21:24.502Z,28.60
2022-08-30T14:23:53.411Z,28.50
2022-08-30T14:26:32.781Z,28.50
2022-08-30T14:29:02.206Z,28.40
2022-08-30T14:31:32.443Z,28.30
2022-08-30T14:33:59.775Z,28.20
2022-08-30T14:36:26.759Z,28.00
2022-08-30T14:38:53.858Z,27.80
2022-08-30T14:41:21.091Z,27.70
2022-08-30T14:43:48.108Z,27.60
2022-08-30T14:46:15.301Z,27.50
2022-08-30T14:48:43.310Z,27.40
2022-08-30T14:51:17.084Z,27.40
2022-08-30T14:53:44.772Z,27.40
2022-08-30T14:56:14.560Z,27.40
2022-08-30T14:58:41.707Z,27.40
2022-08-30T15:01:10.384Z,27.60
2022-08-30T15:03:40.502Z,27.70
2022-08-30T15:06:08.504Z,27.90
2022-08-30T15:08:37.028Z,28.00
2022-08-30T15:11:12.670Z,28.20
2022-08-30T15:13:40.410Z,28.20
2022-08-30T15:16:16.984Z,28.30
2022-08-30T15:18:44.213Z,28.30
2022-08-30T15:21:11.896Z,28.30
2022-08-30T15:23:39.968Z,28.40
2022-08-30T15:26:09.734Z,28.30
2022-08-30T15:28:37.210Z,28.30
2022-08-30T15:31:08.643Z,28.20
2022-08-30T15:33:37.350Z,28.30
2022-08-30T15:36:05.491Z,28.20
2022-08-30T15:38:33.487Z,28.10
2022-08-30T15:41:04.349Z,28.00
2022-08-30T15:43:31.639Z,28.00
2022-08-30T15:46:34.615Z,27.90
2022-08-30T15:49:06.751Z,27.70
2022-08-30T15:51:41.120Z,27.60
2022-08-30T15:54:11.603Z,27.50
2022-08-30T15:56:39.996Z,27.30
2022-08-30T15:59:09.888Z,27.10
2022-08-30T16:01:38.022Z,27.00
2022-08-30T16:04:05.250Z,26.90
2022-08-30T16:06:35.311Z,26.70
2022-08-30T16:09:03.733Z,26.70
2022-08-30T16:11:32.024Z,26.70
2022-08-30T16:13:59.227Z,26.60
2022-08-30T16:16:26.755Z,26.60
2022-08-30T16:18:55.071Z,26.60
2022-08-30T16:21:23.933Z,26.40
2022-08-30T16:23:50.909Z,26.30
2022-08-30T16:26:21.083Z,26.10
2022-08-30T16:28:49.311Z,26.00
2022-08-30T16:31:18.018Z,25.90
2022-08-30T16:33:45.830Z,25.90
2022-08-30T16:36:13.590Z,25.80
2022-08-30T16:38:42.041Z,25.80
2022-08-30T16:41:18.962Z,25.60
2022-08-30T16:43:49.997Z,25.40
2022-08-30T16:46:27.759Z,25.40
2022-08-30T16:48:58.025Z,25.20
2022-08-30T16:51:27.574Z,25.10
2022-08-30T16:53:59.831Z,25.00
2022-08-30T16:56:29.712Z,24.80
2022-08-30T16:59:02.067Z,24.80
2022-08-30T17:01:34.906Z,24.70
2022-08-30T17:04:03.580Z,24.60
2022-08-30T17:06:30.723Z,24.50
2022-08-30T17:08:59.458Z,24.40
2022-08-30T17:11:26.968Z,24.30
2022-08-30T17:13:54.088Z,24.20
2022-08-30T17:16:27.552Z,24.20
2022-08-30T17:18:59.915Z,24.10
2022-08-30T17:21:29.326Z,24.00
2022-08-30T17:24:01.376Z,23.90
2022-08-30T17:26:33.895Z,23.90
2022-08-30T17:29:01.291Z,23.80
2022-08-30T17:31:30.873Z,23.70
2022-08-30T17:34:03.537Z,23.60
2022-08-30T17:36:32.886Z,23.50
2022-08-30T17:39:10.562Z,23.50
2022-08-30T17:41:39.410Z,23.40
2022-08-30T17:44:06.444Z,23.30
2022-08-30T17:46:35.076Z,23.20
2022-08-30T17:49:03.314Z,23.10
2022-08-30T17:51:31.030Z,23.00
2022-08-30T17:54:00.134Z,23.00
2022-08-30T17:56:34.142Z,22.90
2022-08-30T17:59:04.992Z,22.90
2022-08-30T18:01:32.302Z,22.80
2022-08-30T18:04:01.718Z,22.70
2022-08-30T18:06:29.824Z,22.60
2022-08-30T18:08:56.822Z,22.50
2022-08-30T18:11:23.803Z,22.50
2022-08-30T18:13:50.809Z,22.40
2022-08-30T18:16:18.738Z,22.30
2022-08-30T18:18:52.619Z,22.20
2022-08-30T18:21:24.190Z,22.10
2022-08-30T18:23:52.790Z,22.00
2022-08-30T18:26:21.142Z,21.90
2022-08-30T18:28:51.318Z,21.80
2022-08-30T18:31:18.666Z,21.70
2022-08-30T18:33:47.536Z,21.60
2022-08-30T18:36:14.685Z,21.50
2022-08-30T18:38:42.858Z,21.40
2022-08-30T18:41:14.007Z,21.40
2022-08-30T18:43:42.192Z,21.30
2022-08-30T18:46:12.770Z,21.20
2022-08-30T18:48:42.186Z,21.10
2022-08-30T18:51:14.491Z,21.10
2022-08-30T18:53:42.823Z,21.00
2022-08-30T18:56:11.382Z,21.00
2022-08-30T18:58:40.538Z,21.00
2022-08-30T19:01:12.876Z,20.90
2022-08-30T19:03:40.790Z,20.90
2022-08-30T19:06:11.639Z,20.80
2022-08-30T19:08:40.326Z,20.80
2022-08-30T19:11:09.009Z,20.70
2022-08-30T19:13:36.998Z,20.60
2022-08-30T19:16:06.665Z,20.60
2022-08-30T19:18:34.664Z,20.50
2022-08-30T19:21:03.985Z,20.40
2022-08-30T19:23:34.413Z,20.40
2022-08-30T19:26:01.482Z,20.40
2022-08-30T19:28:28.920Z,20.30
2022-08-30T19:30:55.982Z,20.30
2022-08-30T19:33:24.257Z,20.30
2022-08-30T19:35:51.800Z,20.30
2022-08-30T19:38:19.175Z,20.30
2022-08-30T19:40:51.045Z,20.20
2022-08-30T19:43:20.942Z,20.20
2022-08-30T19:45:56.656Z,20.20
2022-08-30T19:48:25.068Z,20.10
2022-08-30T19:51:00.299Z,20.10
2022-08-30T19:53:27.547Z,20.10
2022-08-30T19:55:54.805Z,20.10
2022-08-30T19:58:21.899Z,20.10
2022-08-30T20:00:54.294Z,20.10
2022-08-30T20:03:28.309Z,20.00
2022-08-30T20:05:55.385Z,20.00
2022-08-30T20:08:22.435Z,20.00
2022-08-30T20:10:49.491Z,19.90
2022-08-30T20:13:23.720Z,19.90
2022-08-30T20:15:58.960Z,19.90
2022-08-30T20:18:26.353Z,19.80
2022-08-30T20:20:53.548Z,19.80
2022-08-30T20:23:23.672Z,19.70
2022-08-30T20:25:55.601Z,19.70
2022-08-30T20:28:24.754Z,19.60
2022-08-30T20:30:53.283Z,19.60
2022-08-30T20:33:21.452Z,19.50
2022-08-30T20:35:50.106Z,19.50
2022-08-30T20:38:22.118Z,19.40
2022-08-30T20:40:56.729Z,19.40
2022-08-30T20:43:26.836Z,19.30
2022-08-30T20:45:55.485Z,19.20
2022-08-30T20:48:23.747Z,19.20
2022-08-30T20:50:50.740Z,19.20
2022-08-30T20:53:17.789Z,19.20
2022-08-30T20:55:47.481Z,19.10
2022-08-30T20:58:15.254Z,19.10
2022-08-30T21:00:45.591Z,19.00
2022-08-30T21:03:26.330Z,19.00
2022-08-30T21:05:56.042Z,19.00
2022-08-30T21:08:23.083Z,18.90
2022-08-30T21:10:50.243Z,18.90
2022-08-30T21:13:17.358Z,18.80
2022-08-30T21:15:46.256Z,18.80
2022-08-30T21:18:16.416Z,18.70
2022-08-30T21:20:44.028Z,18.70
2022-08-30T21:23:11.193Z,18.70
2022-08-30T21:25:42.629Z,18.60
2022-08-30T21:28:09.711Z,18.70
2022-08-30T21:30:37.309Z,18.70
2022-08-30T21:33:06.350Z,18.70
2022-08-30T21:35:52.888Z,18.70
2022-08-30T21:38:20.195Z,18.70
2022-08-30T21:40:48.656Z,18.70
2022-08-30T21:43:16.063Z,18.70
2022-08-30T21:45:44.760Z,18.70
2022-08-30T21:48:13.188Z,18.70
2022-08-30T21:50:42.322Z,18.70
2022-08-30T21:53:10.175Z,18.70
2022-08-30T21:55:37.426Z,18.70
2022-08-30T21:58:04.964Z,18.70
2022-08-30T22:00:33.724Z,18.70
2022-08-30T22:03:01.186Z,18.70
2022-08-30T22:05:28.281Z,18.70
2022-08-30T22:07:55.337Z,18.60
2022-08-30T22:10:22.533Z,18.60
2022-08-30T22:12:49.567Z,18.60
2022-08-30T22:15:16.925Z,18.60
2022-08-30T22:17:44.327Z,18.60
2022-08-30T22:20:18.540Z,18.60
2022-08-30T22:22:48.840Z,18.60
2022-08-30T22:25:15.922Z,18.50
2022-08-30T22:27:42.899Z,18.40
2022-08-30T22:30:10.455Z,18.40
2022-08-30T22:32:38.371Z,18.30
2022-08-30T22:35:06.729Z,18.20
2022-08-30T22:37:34.281Z,18.30
2022-08-30T22:40:01.415Z,18.20
2022-08-30T22:42:28.418Z,18.20
2022-08-30T22:44:55.466Z,18.10
2022-08-30T22:47:22.470Z,18.10
2022-08-30T22:49:49.511Z,18.00
2022-08-30T22:52:16.496Z,18.00
2022-08-30T22:54:46.982Z,18.00
2022-08-30T22:57:15.872Z,18.00
2022-08-30T22:59:42.879Z,18.00
2022-08-30T23:02:09.941Z,18.00
2022-08-30T23:04:38.319Z,18.00
2022-08-30T23:07:05.647Z,18.00
2022-08-30T23:09:32.732Z,18.00
2022-08-30T23:11:59.874Z,17.90
2022-08-30T23:14:26.964Z,17.90
2022-08-30T23:16:54.009Z,17.90
2022-08-30T23:19:21.142Z,17.90
2022-08-30T23:21:48.140Z,17.90
2022-08-30T23:24:33.556Z,17.80
2022-08-30T23:27:18.907Z,17.80
2022-08-30T23:30:04.321Z,17.80
2022-08-30T23:32:49.800Z,17.70
2022-08-30T23:35:35.498Z,17.70
2022-08-30T23:38:23.570Z,17.60
2022-08-30T23:41:09.148Z,17.60
2022-08-30T23:43:54.567Z,17.40
2022-08-30T23:46:40.162Z,17.40
2022-08-30T23:49:25.602Z,17.40
2022-08-30T23:52:10.920Z,17.40
2022-08-30T23:54:57.441Z,17.30
2022-08-30T23:57:44.798Z,17.30
